Time;durP1;ratioP1;P1;durP2;ratioP2;P2;SDS_P1;SDS_P2;PMS_P1;PMS_P2;Temp;Humidity;BMP_temperature;BMP_pressure;BME280_temperature;BME280_humidity;BME280_pressure;Samples;Min_cycle;Max_cycle;Signal;HPM_P1;HPM_P2
2024/01/17 00:00:20;;;;;;;40.58;21.15;;;;;;;0.01;100.00;99830.31;5072085;28;20044;-43
2024/01/17 00:02:49;;;;;;;41.90;21.48;;;;;;;0.06;100.00;99832.81;5071861;28;20445;-44
2024/01/17 00:05:18;;;;;;;36.97;20.92;;;;;;;0.01;100.00;99825.06;5072126;28;20072;-42
2024/01/17 00:07:47;;;;;;;38.92;22.10;;;;;;;0.01;100.00;99830.31;5071467;28;20136;-44
2024/01/17 00:10:16;;;;;;;39.67;21.27;;;;;;;0.04;100.00;99829.38;5072084;28;20055;-45
2024/01/17 00:12:45;;;;;;;38.85;21.10;;;;;;;-0.11;100.00;99827.97;5071662;28;20044;-45
2024/01/17 00:15:14;;;;;;;37.53;21.42;;;;;;;-0.09;100.00;99828.81;5071398;28;20507;-43
2024/01/17 00:17:42;;;;;;;38.20;20.70;;;;;;;-0.05;100.00;99820.81;5074596;28;20143;-45
2024/01/17 00:20:11;;;;;;;38.58;21.15;;;;;;;-0.15;100.00;99816.69;5075575;28;20076;-43
2024/01/17 00:22:40;;;;;;;36.85;20.88;;;;;;;-0.19;100.00;99820.31;5075934;28;20136;-43
2024/01/17 00:25:09;;;;;;;38.00;21.23;;;;;;;-0.25;100.00;99819.56;5075548;28;20137;-44
2024/01/17 00:27:38;;;;;;;36.47;20.60;;;;;;;-0.33;100.00;99822.38;5075580;28;20049;-43
2024/01/17 00:30:09;;;;;;;40.25;21.60;;;;;;;-0.32;100.00;99818.84;5075371;28;20123;-43
2024/01/17 00:32:38;;;;;;;40.03;21.60;;;;;;;-0.28;100.00;99822.28;5076206;28;20550;-44
2024/01/17 00:35:08;;;;;;;37.90;20.13;;;;;;;-0.25;100.00;99820.44;5075234;28;20048;-45
2024/01/17 00:37:36;;;;;;;40.42;21.02;;;;;;;-0.21;100.00;99818.59;5075091;28;20056;-44
2024/01/17 00:40:05;;;;;;;37.88;19.88;;;;;;;-0.15;100.00;99811.47;5074963;28;20050;-44
2024/01/17 00:42:34;;;;;;;39.53;21.17;;;;;;;-0.19;100.00;99822.94;5075396;28;20390;-45
2024/01/17 00:45:03;;;;;;;39.10;20.80;;;;;;;-0.16;100.00;99816.75;5075156;28;20131;-43
2024/01/17 00:47:33;;;;;;;36.63;20.75;;;;;;;-0.26;100.00;99823.09;5075893;28;20148;-44
2024/01/17 00:50:03;;;;;;;40.22;21.00;;;;;;;-0.24;100.00;99819.53;5074770;28;20123;-43
2024/01/17 00:52:31;;;;;;;36.85;19.95;;;;;;;-0.26;100.00;99818.72;5074505;28;20075;-43
2024/01/17 00:55:00;;;;;;;37.13;20.27;;;;;;;-0.31;100.00;99818.81;5074281;28;20110;-44
2024/01/17 00:57:28;;;;;;;37.92;21.52;;;;;;;-0.33;100.00;99819.75;5074447;28;20087;-44
2024/01/17 00:59:56;;;;;;;35.60;19.83;;;;;;;-0.31;100.00;99812.69;5074030;28;20114;-44
2024/01/17 01:02:25;;;;;;;32.67;18.77;;;;;;;-0.33;100.00;99806.63;5074338;28;20045;-44
2024/01/17 01:04:54;;;;;;;35.47;19.73;;;;;;;-0.36;100.00;99804.09;5074437;28;20669;-45
2024/01/17 01:07:23;;;;;;;35.05;19.45;;;;;;;-0.27;100.00;99806.50;5074209;28;20127;-44
2024/01/17 01:09:51;;;;;;;32.25;18.27;;;;;;;-0.33;100.00;99804.03;5074257;28;20048;-43
2024/01/17 01:12:23;;;;;;;33.95;19.10;;;;;;;-0.30;100.00;99798.69;5074190;28;20516;-43
2024/01/17 01:14:52;;;;;;;36.67;18.85;;;;;;;-0.19;100.00;99799.34;5074305;28;20129;-45
2024/01/17 01:17:20;;;;;;;32.95;18.08;;;;;;;-0.23;100.00;99800.28;5074023;28;20053;-45
2024/01/17 01:19:49;;;;;;;31.63;17.85;;;;;;;-0.36;100.00;99802.34;5074131;28;20452;-46
2024/01/17 01:22:18;;;;;;;34.33;18.50;;;;;;;-0.25;100.00;99809.09;5074312;28;20124;-45
2024/01/17 01:24:47;;;;;;;30.40;17.55;;;;;;;-0.20;100.00;99810.69;5074080;28;20076;-45
2024/01/17 01:27:15;;;;;;;32.95;17.83;;;;;;;-0.16;100.00;99801.88;5073389;28;20473;-43
2024/01/17 01:29:43;;;;;;;30.90;16.77;;;;;;;-0.16;100.00;99795.78;5073740;28;20059;-46
2024/01/17 01:32:11;;;;;;;32.70;18.00;;;;;;;-0.11;100.00;99794.75;5074184;28;20052;-44
2024/01/17 01:34:39;;;;;;;30.52;17.75;;;;;;;-0.27;100.00;99789.94;5074026;28;20044;-46
2024/01/17 01:37:08;;;;;;;32.53;18.92;;;;;;;-0.17;100.00;99787.03;5073753;28;20131;-44
2024/01/17 01:39:38;;;;;;;35.45;18.85;;;;;;;-0.34;100.00;99787.44;5073755;28;20489;-43
2024/01/17 01:42:06;;;;;;;34.55;18.70;;;;;;;-0.40;100.00;99784.09;5074388;28;20049;-45
2024/01/17 01:44:34;;;;;;;34.25;19.50;;;;;;;-0.25;100.00;99781.13;5074236;28;20064;-44
2024/01/17 01:47:03;;;;;;;36.33;20.02;;;;;;;-0.20;100.00;99778.38;5074212;28;20045;-44
2024/01/17 01:49:31;;;;;;;34.88;19.08;;;;;;;-0.22;100.00;99774.94;5074014;28;20053;-44
2024/01/17 01:52:00;;;;;;;32.33;18.20;;;;;;;-0.34;100.00;99776.94;5073573;28;20084;-44
2024/01/17 01:54:29;;;;;;;35.45;19.25;;;;;;;-0.28;100.00;99765.47;5073598;28;20542;-44
2024/01/17 01:57:00;;;;;;;39.22;19.92;;;;;;;-0.33;100.00;99751.59;5073844;28;20090;-44
2024/01/17 01:59:28;;;;;;;36.13;19.98;;;;;;;-0.40;100.00;99744.78;5073592;28;20045;-43
2024/01/17 02:01:57;;;;;;;35.53;19.60;;;;;;;-0.36;100.00;99749.94;5073226;28;20147;-43
2024/01/17 02:04:28;;;;;;;33.45;19.70;;;;;;;-0.36;100.00;99743.81;5072892;28;20060;-43
2024/01/17 02:07:01;;;;;;;34.38;19.42;;;;;;;-0.53;100.00;99745.97;5072857;28;20047;-44
2024/01/17 02:09:30;;;;;;;37.47;19.92;;;;;;;-0.73;100.00;99731.56;5072928;28;20080;-44
2024/01/17 02:12:00;;;;;;;43.03;20.63;;;;;;;-0.66;100.00;99733.16;5074163;28;20053;-43
2024/01/17 02:14:29;;;;;;;38.38;20.73;;;;;;;-0.70;100.00;99739.34;5073667;28;20524;-44
2024/01/17 02:16:57;;;;;;;40.58;20.35;;;;;;;-0.81;100.00;99737.88;5073678;28;20127;-44
2024/01/17 02:19:26;;;;;;;38.45;20.25;;;;;;;-0.65;100.00;99734.03;5074041;28;20048;-43
2024/01/17 02:21:55;;;;;;;38.55;20.40;;;;;;;-0.55;100.00;99729.44;5074148;28;20044;-45
2024/01/17 02:24:24;;;;;;;39.50;21.40;;;;;;;-0.60;100.00;99722.53;5072859;28;20135;-43
2024/01/17 02:26:52;;;;;;;38.00;20.67;;;;;;;-0.59;100.00;99723.38;5072935;28;20078;-45
2024/01/17 02:29:21;;;;;;;40.05;20.08;;;;;;;-0.60;100.00;99727.75;5072692;28;20102;-43
2024/01/17 02:31:49;;;;;;;38.15;19.52;;;;;;;-0.68;100.00;99708.75;5073415;28;20335;-44
2024/01/17 02:34:18;;;;;;;36.70;19.88;;;;;;;-0.76;100.00;99715.09;5073838;28;20048;-44
2024/01/17 02:36:47;;;;;;;34.83;19.98;;;;;;;-0.66;100.00;99713.97;5073425;28;20052;-45
2024/01/17 02:39:16;;;;;;;35.35;18.48;;;;;;;-0.76;100.00;99712.47;5073123;28;20110;-43
2024/01/17 02:41:48;;;;;;;37.15;19.88;;;;;;;-0.94;100.00;99705.88;5074017;28;20499;-44
2024/01/17 02:44:16;;;;;;;35.73;19.23;;;;;;;-0.91;100.00;99706.66;5073349;28;20177;-44
2024/01/17 02:46:45;;;;;;;33.90;18.35;;;;;;;-0.94;100.00;99708.50;5073548;28;20049;-46
2024/01/17 02:49:19;;;;;;;36.70;19.27;;;;;;;-0.89;100.00;99711.84;5073559;28;20117;-45
2024/01/17 02:51:48;;;;;;;37.70;19.25;;;;;;;-0.85;100.00;99710.06;5073029;28;20124;-43
2024/01/17 02:54:16;;;;;;;35.65;19.35;;;;;;;-0.80;100.00;99716.88;5072779;28;20079;-43
2024/01/17 02:56:44;;;;;;;35.58;19.27;;;;;;;-0.86;100.00;99719.66;5072897;28;20098;-45
2024/01/17 02:59:14;;;;;;;35.00;19.23;;;;;;;-0.82;100.00;99717.81;5073032;28;20497;-44
2024/01/17 03:01:43;;;;;;;37.33;19.63;;;;;;;-0.95;100.00;99714.63;5074026;28;20048;-45
2024/01/17 03:04:11;;;;;;;34.40;18.55;;;;;;;-0.93;100.00;99720.69;5074431;28;20055;-43
2024/01/17 03:06:39;;;;;;;35.65;19.35;;;;;;;-1.01;100.00;99714.75;5072752;28;20485;-45
2024/01/17 03:09:07;;;;;;;33.00;18.45;;;;;;;-1.11;100.00;99710.59;5072228;28;20048;-45
2024/01/17 03:11:36;;;;;;;33.92;18.63;;;;;;;-0.91;100.00;99711.03;5072870;28;20036;-45
2024/01/17 03:14:04;;;;;;;35.58;18.88;;;;;;;-0.89;100.00;99714.47;5072541;28;20048;-44
2024/01/17 03:16:36;;;;;;;43.17;20.90;;;;;;;-0.95;100.00;99712.88;5073067;28;20080;-43
2024/01/17 03:19:04;;;;;;;41.05;20.75;;;;;;;-0.88;100.00;99710.94;5073025;28;20044;-45
2024/01/17 03:21:33;;;;;;;42.00;20.77;;;;;;;-0.84;100.00;99712.63;5072202;28;20112;-46
2024/01/17 03:24:01;;;;;;;45.47;22.50;;;;;;;-0.90;100.00;99708.38;5072880;28;20468;-44
2024/01/17 03:26:29;;;;;;;40.25;20.92;;;;;;;-1.03;100.00;99700.84;5072845;28;20048;-44
2024/01/17 03:28:57;;;;;;;40.88;21.48;;;;;;;-0.97;100.00;99700.69;5072277;28;20412;-44
2024/01/17 03:31:26;;;;;;;37.63;20.20;;;;;;;-1.10;100.00;99689.63;5072207;28;20084;-43
2024/01/17 03:33:55;;;;;;;42.92;20.08;;;;;;;-1.04;100.00;99683.41;5072581;28;20049;-44
2024/01/17 03:36:24;;;;;;;33.58;17.80;;;;;;;-0.97;100.00;99683.22;5072006;28;20052;-45
2024/01/17 03:38:52;;;;;;;34.50;18.85;;;;;;;-1.05;100.00;99681.69;5072015;28;20133;-44
2024/01/17 03:41:21;;;;;;;33.65;18.08;;;;;;;-1.04;100.00;99675.56;5072130;28;20052;-44
2024/01/17 03:43:51;;;;;;;33.85;17.98;;;;;;;-1.07;100.00;99678.22;5072445;28;20075;-44
2024/01/17 03:46:19;;;;;;;34.35;17.95;;;;;;;-1.08;100.00;99671.28;5072239;28;20048;-44
2024/01/17 03:48:47;;;;;;;37.00;17.65;;;;;;;-1.24;100.00;99666.38;5072036;28;20413;-44
2024/01/17 03:51:19;;;;;;;34.63;18.35;;;;;;;-1.36;100.00;99668.38;5073004;28;20106;-43
2024/01/17 03:53:47;;;;;;;39.10;19.33;;;;;;;-1.42;100.00;99660.69;5075933;28;20135;-45
2024/01/17 03:56:16;;;;;;;34.67;18.58;;;;;;;-1.50;100.00;99663.44;5076079;28;20052;-44
2024/01/17 03:58:44;;;;;;;35.60;18.77;;;;;;;-1.42;100.00;99651.09;5075972;28;20040;-44
2024/01/17 04:01:14;;;;;;;37.42;19.48;;;;;;;-1.33;100.00;99650.88;5075584;28;20040;-45
2024/01/17 04:03:45;;;;;;;38.20;19.27;;;;;;;-1.48;100.00;99654.66;5075707;28;20091;-44
2024/01/17 04:06:13;;;;;;;35.45;18.65;;;;;;;-1.35;100.00;99664.88;5075799;28;20045;-46
2024/01/17 04:08:44;;;;;;;33.25;17.77;;;;;;;-1.47;100.00;99664.25;5075545;28;20555;-44
2024/01/17 04:11:12;;;;;;;34.80;18.88;;;;;;;-1.38;100.00;99667.56;5075590;28;20213;-45
2024/01/17 04:13:42;;;;;;;34.13;17.30;;;;;;;-1.52;100.00;99654.78;5075242;28;20139;-44
2024/01/17 04:16:11;;;;;;;34.78;18.02;;;;;;;-1.54;100.00;99643.50;5075410;28;20047;-44
2024/01/17 04:18:40;;;;;;;35.13;18.75;;;;;;;-1.54;100.00;99648.72;5074271;28;20051;-44
2024/01/17 04:21:09;;;;;;;36.15;18.73;;;;;;;-1.31;100.00;99649.09;5075205;28;20507;-44
2024/01/17 04:23:37;;;;;;;37.88;18.90;;;;;;;-1.44;100.00;99645.03;5075223;28;20047;-44
2024/01/17 04:26:06;;;;;;;34.47;19.38;;;;;;;-1.54;100.00;99640.88;5075119;28;20063;-47
2024/01/17 04:28:34;;;;;;;32.40;18.23;;;;;;;-1.47;100.00;99621.53;5074857;28;20484;-44
2024/01/17 04:31:03;;;;;;;37.90;18.30;;;;;;;-1.46;100.00;99610.16;5074584;28;20489;-44
2024/01/17 04:33:31;;;;;;;37.20;18.95;;;;;;;-1.71;100.00;99609.84;5075422;28;20040;-45
2024/01/17 04:36:00;;;;;;;33.25;17.70;;;;;;;-2.06;100.00;99600.06;5075531;28;20127;-43
2024/01/17 04:38:28;;;;;;;42.30;21.05;;;;;;;-2.22;100.00;99598.63;5074648;28;20040;-44
2024/01/17 04:40:57;;;;;;;32.80;19.58;;;;;;;-2.20;100.00;99594.28;5074460;28;20052;-43
2024/01/17 04:43:34;;;;;;;37.53;19.38;;;;;;;-2.12;100.00;99598.47;5074936;28;20041;-45
2024/01/17 04:46:03;;;;;;;37.38;18.75;;;;;;;-2.23;100.00;99602.13;5074477;28;20044;-44
2024/01/17 04:48:31;;;;;;;37.50;19.92;;;;;;;-2.24;100.00;99600.41;5074350;28;20044;-46
2024/01/17 04:50:59;;;;;;;39.85;20.55;;;;;;;-2.11;100.00;99601.94;5074559;28;20060;-43
2024/01/17 04:53:27;;;;;;;39.85;21.10;;;;;;;-1.91;100.00;99599.78;5074217;28;20049;-44
2024/01/17 04:55:56;;;;;;;42.78;21.30;;;;;;;-1.86;100.00;99597.94;5074768;28;20136;-43
2024/01/17 04:58:25;;;;;;;40.88;20.73;;;;;;;-1.84;100.00;99598.75;5074719;28;20040;-44
2024/01/17 05:00:54;;;;;;;45.63;20.75;;;;;;;-1.82;100.00;99599.59;5074720;28;20045;-44
2024/01/17 05:03:22;;;;;;;38.50;20.85;;;;;;;-2.11;100.00;99604.53;5074278;28;20190;-44
2024/01/17 05:05:50;;;;;;;42.72;20.88;;;;;;;-2.08;100.00;99602.72;5074762;28;20413;-45
2024/01/17 05:08:19;;;;;;;35.38;19.67;;;;;;;-1.97;100.00;99605.13;5074733;28;20131;-43
2024/01/17 05:10:47;;;;;;;42.55;22.00;;;;;;;-1.93;100.00;99601.59;5074289;28;20143;-44
2024/01/17 05:13:15;;;;;;;40.40;20.30;;;;;;;-2.11;100.00;99596.72;5074185;28;20047;-44
2024/01/17 05:15:45;;;;;;;41.40;20.52;;;;;;;-1.88;100.00;99598.84;5074441;28;20079;-47
2024/01/17 05:18:16;;;;;;;37.30;19.83;;;;;;;-1.76;100.00;99593.38;5074121;28;20045;-44
2024/01/17 05:20:45;;;;;;;40.63;20.40;;;;;;;-1.80;100.00;99589.97;5073577;28;20048;-44
2024/01/17 05:23:13;;;;;;;39.58;19.63;;;;;;;-1.76;100.00;99586.38;5074659;28;20051;-45
2024/01/17 05:25:42;;;;;;;40.20;20.48;;;;;;;-1.77;100.00;99592.50;5075459;28;20040;-43
2024/01/17 05:28:10;;;;;;;40.72;21.77;;;;;;;-1.76;100.00;99594.22;5080916;28;20161;-45
2024/01/17 05:30:38;;;;;;;37.17;20.17;;;;;;;-1.78;100.00;99596.03;5082475;28;20059;-43
2024/01/17 05:33:09;;;;;;;41.35;20.67;;;;;;;-1.74;100.00;99607.25;5080374;28;20048;-44
2024/01/17 05:35:38;;;;;;;35.38;20.15;;;;;;;-1.84;100.00;99596.13;5079734;28;20048;-44
2024/01/17 05:38:07;;;;;;;37.05;20.15;;;;;;;-1.77;100.00;99587.28;5076540;28;20045;-45
2024/01/17 05:40:35;;;;;;;38.30;20.08;;;;;;;-1.81;100.00;99596.09;5074353;28;20053;-43
2024/01/17 05:43:04;;;;;;;40.33;19.90;;;;;;;-1.97;100.00;99599.03;5073745;28;20044;-44
2024/01/17 05:45:33;;;;;;;37.13;19.45;;;;;;;-1.83;100.00;99599.63;5073802;28;20048;-44
2024/01/17 05:48:01;;;;;;;40.72;19.77;;;;;;;-1.76;100.00;99589.00;5073414;28;20412;-44
2024/01/17 05:50:31;;;;;;;39.58;20.27;;;;;;;-1.88;100.00;99583.16;5073604;28;20049;-43
2024/01/17 05:53:00;;;;;;;38.42;19.17;;;;;;;-1.74;100.00;99579.41;5073544;28;20627;-46
2024/01/17 05:55:28;;;;;;;34.38;19.80;;;;;;;-1.89;100.00;99581.44;5073793;28;20048;-46
2024/01/17 05:57:56;;;;;;;39.25;18.60;;;;;;;-1.91;100.00;99591.09;5073457;28;20045;-47
2024/01/17 06:00:25;;;;;;;38.17;20.20;;;;;;;-1.85;100.00;99589.19;5073072;28;20124;-45
2024/01/17 06:02:53;;;;;;;38.00;19.88;;;;;;;-1.95;100.00;99577.19;5072903;28;20048;-47
2024/01/17 06:05:22;;;;;;;41.78;21.38;;;;;;;-2.17;100.00;99557.63;5072731;28;20044;-42
2024/01/17 06:07:51;;;;;;;41.65;21.58;;;;;;;-2.14;100.00;99554.94;5072419;28;20117;-44
2024/01/17 06:10:24;;;;;;;46.25;23.67;;;;;;;-2.36;100.00;99571.03;5072661;28;20055;-43
2024/01/17 06:12:52;;;;;;;45.55;21.92;;;;;;;-2.06;100.00;99579.16;5072417;28;20051;-44
2024/01/17 06:15:20;;;;;;;38.92;21.50;;;;;;;-1.79;100.00;99585.59;5072339;28;20058;-42
2024/01/17 06:17:48;;;;;;;43.35;21.98;;;;;;;-1.91;100.00;99584.09;5072278;28;20048;-45
2024/01/17 06:20:17;;;;;;;44.15;22.50;;;;;;;-2.17;100.00;99578.53;5072168;28;20134;-45
2024/01/17 06:22:47;;;;;;;39.95;22.15;;;;;;;-1.96;100.00;99574.63;5073308;28;20493;-44
2024/01/17 06:25:17;;;;;;;38.95;21.20;;;;;;;-2.06;100.00;99568.72;5073544;28;20060;-46
2024/01/17 06:27:45;;;;;;;39.30;21.48;;;;;;;-2.00;100.00;99567.75;5072760;28;20049;-44
2024/01/17 06:30:14;;;;;;;41.78;20.88;;;;;;;-2.11;100.00;99563.59;5072840;28;20409;-43
2024/01/17 06:32:42;;;;;;;41.80;21.08;;;;;;;-1.79;100.00;99573.38;5072788;28;20070;-43
2024/01/17 06:35:14;;;;;;;44.35;22.30;;;;;;;-1.88;100.00;99583.16;5073114;28;20390;-44
2024/01/17 06:37:42;;;;;;;37.42;21.35;;;;;;;-1.91;100.00;99586.72;5073541;28;20044;-44
2024/01/17 06:40:12;;;;;;;43.72;20.45;;;;;;;-1.94;100.00;99588.50;5072703;28;20143;-43
2024/01/17 06:42:41;;;;;;;42.65;20.85;;;;;;;-1.87;100.00;99584.88;5072403;28;20133;-45
2024/01/17 06:45:11;;;;;;;40.63;20.55;;;;;;;-1.97;100.00;99588.59;5073005;28;20052;-42
2024/01/17 06:47:42;;;;;;;41.50;20.90;;;;;;;-2.02;100.00;99586.06;5072599;28;20080;-44
2024/01/17 06:50:11;;;;;;;47.05;21.55;;;;;;;-2.59;100.00;99573.22;5072833;28;20382;-44
2024/01/17 06:52:40;;;;;;;37.85;19.05;;;;;;;-2.73;100.00;99573.44;5073574;28;20060;-43
2024/01/17 06:55:08;;;;;;;38.63;20.60;;;;;;;-2.74;100.00;99569.09;5073368;28;20052;-42
2024/01/17 06:57:37;;;;;;;42.65;21.73;;;;;;;-2.70;100.00;99575.13;5074180;28;20048;-44
2024/01/17 07:00:08;;;;;;;41.20;20.67;;;;;;;-2.58;100.00;99569.72;5074019;28;20072;-43
2024/01/17 07:02:36;;;;;;;39.90;19.70;;;;;;;-2.51;100.00;99571.34;5072999;28;20136;-43
2024/01/17 07:05:05;;;;;;;41.95;20.90;;;;;;;-2.31;100.00;99563.97;5071886;28;20091;-43
2024/01/17 07:07:34;;;;;;;38.78;21.00;;;;;;;-2.26;100.00;99571.72;5072782;28;20056;-44
2024/01/17 07:10:03;;;;;;;40.90;19.73;;;;;;;-2.40;100.00;99563.28;5072729;28;20049;-42
2024/01/17 07:12:34;;;;;;;38.92;20.05;;;;;;;-2.35;100.00;99562.31;5072530;28;20143;-43
2024/01/17 07:15:03;;;;;;;40.10;19.75;;;;;;;-2.25;100.00;99575.19;5073156;28;20041;-44
2024/01/17 07:17:33;;;;;;;38.10;20.02;;;;;;;-2.09;100.00;99566.19;5072193;28;20049;-43
2024/01/17 07:20:01;;;;;;;41.28;20.10;;;;;;;-2.02;100.00;99550.34;5072339;28;20049;-49
2024/01/17 07:22:29;;;;;;;41.63;20.92;;;;;;;-2.29;100.00;99539.59;5072751;28;20052;-43
2024/01/17 07:24:58;;;;;;;36.67;20.15;;;;;;;-2.17;100.00;99537.56;5072795;28;20054;-43
2024/01/17 07:27:26;;;;;;;40.72;20.17;;;;;;;-2.15;100.00;99529.69;5071690;28;20417;-43
2024/01/17 07:29:55;;;;;;;41.03;19.63;;;;;;;-2.37;100.00;99531.88;5071876;28;20056;-49
2024/01/17 07:32:23;;;;;;;39.67;21.40;;;;;;;-2.28;100.00;99525.63;5071927;28;20048;-43
2024/01/17 07:34:54;;;;;;;41.40;20.83;;;;;;;-2.00;100.00;99521.56;5072309;28;20045;-45
2024/01/17 07:37:22;;;;;;;39.35;19.88;;;;;;;-1.90;100.00;99523.09;5072213;28;20040;-44
2024/01/17 07:39:50;;;;;;;38.63;18.75;;;;;;;-2.29;100.00;99532.59;5071919;28;20052;-44
2024/01/17 07:42:19;;;;;;;40.92;19.60;;;;;;;-2.06;100.00;99532.13;5072640;28;20075;-44
2024/01/17 07:44:47;;;;;;;32.92;17.35;;;;;;;-2.16;100.00;99530.59;5071954;28;20139;-44
2024/01/17 07:47:16;;;;;;;34.58;18.65;;;;;;;-2.16;100.00;99530.59;5073146;28;20056;-43
2024/01/17 07:49:45;;;;;;;33.97;18.15;;;;;;;-2.29;100.00;99518.69;5072104;28;20049;-42
2024/01/17 07:52:15;;;;;;;34.58;18.40;;;;;;;-2.37;100.00;99514.47;5072641;28;20064;-44
2024/01/17 07:54:43;;;;;;;33.50;16.83;;;;;;;-2.38;100.00;99515.34;5072421;28;20040;-45
2024/01/17 07:57:12;;;;;;;33.72;17.90;;;;;;;-2.36;100.00;99518.78;5073077;28;20045;-44
2024/01/17 07:59:41;;;;;;;38.13;17.85;;;;;;;-2.41;100.00;99515.44;5071485;28;20175;-46
2024/01/17 08:02:11;;;;;;;39.42;18.73;;;;;;;-2.39;100.00;99518.00;5072373;28;20075;-45
2024/01/17 08:04:42;;;;;;;31.80;17.52;;;;;;;-2.23;100.00;99514.16;5071575;28;20102;-43
2024/01/17 08:07:10;;;;;;;33.50;16.88;;;;;;;-2.06;100.00;99516.44;5071693;28;20094;-44
2024/01/17 08:09:41;;;;;;;35.13;18.27;;;;;;;-1.99;100.00;99511.97;5072288;28;20048;-45
2024/01/17 08:12:09;;;;;;;34.92;18.67;;;;;;;-2.06;100.00;99519.06;5070763;28;20056;-43
2024/01/17 08:14:37;;;;;;;40.05;18.88;;;;;;;-2.33;100.00;99510.03;5071057;28;20040;-43
2024/01/17 08:17:06;;;;;;;33.72;18.27;;;;;;;-2.15;100.00;99506.19;5070926;28;20053;-45
2024/01/17 08:19:35;;;;;;;39.13;18.55;;;;;;;-2.11;100.00;99513.94;5071820;28;20108;-43
2024/01/17 08:22:04;;;;;;;33.25;17.20;;;;;;;-2.00;100.00;99508.50;5072464;28;20456;-43
2024/01/17 08:24:32;;;;;;;29.25;16.42;;;;;;;-1.85;100.00;99512.53;5072316;28;20052;-44
2024/01/17 08:27:03;;;;;;;35.30;17.58;;;;;;;-1.69;100.00;99523.50;5070717;28;20076;-43
2024/01/17 08:29:31;;;;;;;32.83;18.05;;;;;;;-1.77;100.00;99521.91;5070738;28;20048;-41
2024/01/17 08:31:59;;;;;;;30.92;17.20;;;;;;;-1.66;100.00;99518.19;5071284;28;20100;-43
2024/01/17 08:34:27;;;;;;;30.10;15.80;;;;;;;-1.43;100.00;99504.63;5072570;28;20371;-43
2024/01/17 08:36:56;;;;;;;32.10;17.15;;;;;;;-1.55;100.00;99508.34;5072132;28;20484;-44
2024/01/17 08:39:24;;;;;;;38.97;18.27;;;;;;;-1.88;100.00;99505.59;5076408;28;20048;-43
2024/01/17 08:41:52;;;;;;;31.95;16.35;;;;;;;-1.84;100.00;99501.16;5074327;28;20045;-45
2024/01/17 08:44:22;;;;;;;33.70;17.90;;;;;;;-1.77;100.00;99498.38;5073846;28;20041;-43
2024/01/17 08:46:52;;;;;;;35.15;17.80;;;;;;;-1.87;100.00;99496.00;5073677;28;20044;-43
2024/01/17 08:49:21;;;;;;;34.55;18.58;;;;;;;-1.86;100.00;99492.50;5073984;28;20040;-44
2024/01/17 08:51:50;;;;;;;37.45;17.55;;;;;;;-1.59;100.00;99491.03;5073878;28;20045;-43
2024/01/17 08:54:18;;;;;;;37.25;18.05;;;;;;;-1.68;100.00;99496.47;5074398;28;20041;-44
2024/01/17 08:56:48;;;;;;;38.85;18.08;;;;;;;-1.73;100.00;99488.75;5074865;28;20437;-43
2024/01/17 08:59:18;;;;;;;30.75;16.95;;;;;;;-1.73;100.00;99486.97;5073772;28;20102;-44
2024/01/17 09:01:47;;;;;;;33.95;17.50;;;;;;;-1.65;100.00;99484.16;5074153;28;20486;-42
2024/01/17 09:04:16;;;;;;;30.63;17.15;;;;;;;-1.64;100.00;99475.47;5074593;28;20044;-44
2024/01/17 09:06:44;;;;;;;29.77;15.52;;;;;;;-1.52;100.00;99485.63;5074991;28;20134;-43
2024/01/17 09:09:14;;;;;;;28.20;15.90;;;;;;;-1.31;100.00;99480.78;5073954;28;20053;-44
2024/01/17 09:11:43;;;;;;;30.42;15.13;;;;;;;-1.27;100.00;99475.41;5073712;28;20127;-44
2024/01/17 09:14:11;;;;;;;28.75;14.48;;;;;;;-1.13;100.00;99463.75;5073888;28;20080;-43
2024/01/17 09:16:40;;;;;;;23.58;13.18;;;;;;;-1.17;100.00;99463.81;5073901;28;20126;-43
2024/01/17 09:19:10;;;;;;;28.25;13.63;;;;;;;-1.16;100.00;99468.19;5073632;28;20049;-44
2024/01/17 09:21:39;;;;;;;22.92;12.60;;;;;;;-1.13;100.00;99463.75;5074044;28;20053;-44
2024/01/17 09:24:07;;;;;;;24.98;13.48;;;;;;;-1.13;100.00;99458.53;5073803;28;20076;-44
2024/01/17 09:26:35;;;;;;;23.02;12.80;;;;;;;-1.01;100.00;99458.22;5073656;28;20076;-44
2024/01/17 09:29:04;;;;;;;26.73;13.60;;;;;;;-1.18;100.00;99441.16;5073579;28;20577;-45
2024/01/17 09:31:32;;;;;;;24.23;13.00;;;;;;;-1.08;100.00;99440.94;5073525;28;20064;-45
2024/01/17 09:34:01;;;;;;;25.52;12.75;;;;;;;-1.18;100.00;99445.53;5073332;28;20087;-45
2024/01/17 09:36:30;;;;;;;23.92;12.82;;;;;;;-1.43;100.00;99447.94;5073223;28;20048;-43
2024/01/17 09:38:58;;;;;;;26.60;13.30;;;;;;;-1.56;100.00;99442.13;5072820;28;20060;-44
2024/01/17 09:41:27;;;;;;;25.88;13.77;;;;;;;-1.44;100.00;99422.69;5073113;28;20049;-44
2024/01/17 09:43:56;;;;;;;29.85;15.20;;;;;;;-1.42;100.00;99405.19;5073077;28;20048;-44
2024/01/17 09:46:24;;;;;;;25.88;13.35;;;;;;;-1.52;100.00;99398.47;5073550;28;20121;-45
2024/01/17 09:48:53;;;;;;;24.95;13.82;;;;;;;-1.67;100.00;99414.50;5072915;28;20052;-44
2024/01/17 09:51:24;;;;;;;23.83;13.48;;;;;;;-1.56;100.00;99413.34;5072647;28;20416;-45
2024/01/17 09:53:59;;;;;;;23.65;14.05;;;;;;;-1.47;100.00;99401.81;5073042;28;20053;-46
2024/01/17 09:56:30;;;;;;;28.20;13.85;;;;;;;-1.82;100.00;99398.31;5072645;28;20049;-48
2024/01/17 09:59:03;;;;;;;26.55;13.63;;;;;;;-1.71;100.00;99384.13;5072908;28;20130;-44
2024/01/17 10:01:33;;;;;;;26.75;12.57;;;;;;;-2.05;100.00;99367.47;5073294;28;20407;-44
2024/01/17 10:04:03;;;;;;;26.50;14.13;;;;;;;-1.90;100.00;99350.56;5073336;28;20083;-45
2024/01/17 10:06:32;;;;;;;25.30;13.68;;;;;;;-1.92;100.00;99336.69;5073007;28;20079;-46
2024/01/17 10:09:02;;;;;;;25.15;14.25;;;;;;;-1.56;100.00;99337.50;5073998;28;20055;-44
2024/01/17 10:11:31;;;;;;;29.13;15.02;;;;;;;-1.52;100.00;99335.69;5073819;28;20045;-44
2024/01/17 10:13:59;;;;;;;25.73;14.82;;;;;;;-1.59;100.00;99336.72;5072879;28;20052;-46
2024/01/17 10:16:31;;;;;;;27.88;15.23;;;;;;;-1.66;100.00;99322.94;5073078;28;20040;-46
2024/01/17 10:19:00;;;;;;;29.98;14.68;;;;;;;-1.58;100.00;99310.53;5073620;28;20083;-45
2024/01/17 10:21:32;;;;;;;30.02;16.02;;;;;;;-1.34;100.00;99321.28;5073357;28;20125;-45
2024/01/17 10:24:02;;;;;;;35.65;20.10;;;;;;;-1.47;100.00;99312.88;5073849;28;20084;-47
2024/01/17 10:26:32;;;;;;;32.63;17.95;;;;;;;-1.69;100.00;99315.19;5073489;28;20055;-45
2024/01/17 10:29:01;;;;;;;34.17;17.50;;;;;;;-1.63;100.00;99311.56;5072573;28;20098;-46
2024/01/17 10:31:31;;;;;;;32.83;17.88;;;;;;;-1.44;100.00;99312.81;5072669;28;20048;-45
2024/01/17 10:33:59;;;;;;;31.17;16.40;;;;;;;-1.57;100.00;99303.53;5072668;28;20098;-45
2024/01/17 10:36:27;;;;;;;29.00;15.88;;;;;;;-1.35;100.00;99289.03;5072816;28;20091;-44
2024/01/17 10:39:04;;;;;;;25.58;15.35;;;;;;;-1.32;100.00;99278.47;5072937;28;20056;-43
2024/01/17 10:41:33;;;;;;;28.48;15.57;;;;;;;-1.39;100.00;99274.28;5072817;28;20044;-45
2024/01/17 10:44:03;;;;;;;27.92;15.80;;;;;;;-1.19;100.00;99282.44;5072433;28;20256;-46
2024/01/17 10:46:33;;;;;;;27.52;14.30;;;;;;;-1.43;100.00;99270.06;5072437;28;20048;-46
2024/01/17 10:49:01;;;;;;;29.95;16.63;;;;;;;-1.29;100.00;99265.28;5072111;28;20048;-45
2024/01/17 10:51:35;;;;;;;33.17;17.60;;;;;;;-1.32;100.00;99261.91;5072387;28;20048;-44
2024/01/17 10:54:08;;;;;;;33.33;17.92;;;;;;;-1.19;100.00;99251.03;5072941;28;20060;-47
2024/01/17 10:56:43;;;;;;;30.55;16.98;;;;;;;-1.13;100.00;99234.31;5073485;28;20048;-45
2024/01/17 10:59:14;;;;;;;34.00;18.50;;;;;;;-1.25;100.00;99227.69;5072681;28;20123;-45
2024/01/17 11:01:47;;;;;;;33.72;17.02;;;;;;;-1.42;100.00;99222.06;5071747;28;20588;-46
2024/01/17 11:04:19;;;;;;;34.70;19.10;;;;;;;-1.23;100.00;99211.94;5072214;28;20095;-45
2024/01/17 11:06:49;;;;;;;35.00;18.10;;;;;;;-1.36;100.00;99208.78;5072315;28;20048;-45
2024/01/17 11:09:21;;;;;;;35.70;19.08;;;;;;;-1.15;100.00;99199.50;5072167;28;20049;-44
2024/01/17 11:11:53;;;;;;;33.95;19.25;;;;;;;-0.99;100.00;99186.78;5072171;28;20067;-45
2024/01/17 11:14:24;;;;;;;33.00;18.83;;;;;;;-1.00;100.00;99182.47;5071535;28;20052;-46
2024/01/17 11:16:54;;;;;;;33.60;18.80;;;;;;;-1.37;100.00;99183.53;5071636;28;20048;-44